sensor_id;sensor_type;location;lat;lon;timestamp;P1;durP1;ratioP1;P2;durP2;ratioP2
17784;SDS011;9016;53.582;10.062;2022-09-06T00:02:17;2.63;;;1.70;;
17784;SDS011;9016;53.582;10.062;2022-09-06T00:04:45;1.87;;;1.70;;
17784;SDS011;9016;53.582;10.062;2022-09-06T00:07:14;3.17;;;1.70;;
17784;SDS011;9016;53.582;10.062;2022-09-06T00:09:42;3.03;;;1.70;;
17784;SDS011;9016;53.582;10.062;2022-09-06T00:12:10;2.23;;;1.60;;
17784;SDS011;9016;53.582;10.062;2022-09-06T00:14:39;6.07;;;1.90;;
17784;SDS011;9016;53.582;10.062;2022-09-06T00:17:07;4.57;;;1.70;;
17784;SDS011;9016;53.582;10.062;2022-09-06T00:19:35;4.47;;;1.57;;
17784;SDS011;9016;53.582;10.062;2022-09-06T00:22:03;2.97;;;1.80;;
17784;SDS011;9016;53.582;10.062;2022-09-06T00:24:31;3.97;;;1.87;;
17784;SDS011;9016;53.582;10.062;2022-09-06T00:26:59;4.13;;;1.63;;
17784;SDS011;9016;53.582;10.062;2022-09-06T00:29:27;2.63;;;1.67;;
17784;SDS011;9016;53.582;10.062;2022-09-06T00:31:56;2.80;;;1.70;;
17784;SDS011;9016;53.582;10.062;2022-09-06T00:34:24;5.67;;;1.60;;
17784;SDS011;9016;53.582;10.062;2022-09-06T00:36:53;2.70;;;1.73;;
17784;SDS011;9016;53.582;10.062;2022-09-06T00:39:21;2.93;;;1.70;;
17784;SDS011;9016;53.582;10.062;2022-09-06T00:41:49;4.40;;;1.90;;
17784;SDS011;9016;53.582;10.062;2022-09-06T00:44:18;2.97;;;2.10;;
17784;SDS011;9016;53.582;10.062;2022-09-06T00:46:46;2.30;;;1.60;;
17784;SDS011;9016;53.582;10.062;2022-09-06T00:49:19;4.63;;;1.60;;
17784;SDS011;9016;53.582;10.062;2022-09-06T00:51:51;2.67;;;1.70;;
17784;SDS011;9016;53.582;10.062;2022-09-06T00:54:22;1.73;;;1.63;;
17784;SDS011;9016;53.582;10.062;2022-09-06T00:56:50;2.20;;;1.97;;
17784;SDS011;9016;53.582;10.062;2022-09-06T00:59:18;1.90;;;1.70;;
17784;SDS011;9016;53.582;10.062;2022-09-06T01:01:47;8.60;;;3.17;;
17784;SDS011;9016;53.582;10.062;2022-09-06T01:04:15;5.73;;;2.33;;
17784;SDS011;9016;53.582;10.062;2022-09-06T01:06:46;3.43;;;2.00;;
17784;SDS011;9016;53.582;10.062;2022-09-06T01:09:26;3.10;;;1.90;;
17784;SDS011;9016;53.582;10.062;2022-09-06T01:12:13;3.30;;;1.97;;
17784;SDS011;9016;53.582;10.062;2022-09-06T01:14:54;3.93;;;1.83;;
17784;SDS011;9016;53.582;10.062;2022-09-06T01:17:35;3.30;;;2.10;;
17784;SDS011;9016;53.582;10.062;2022-09-06T01:20:22;4.03;;;2.30;;
17784;SDS011;9016;53.582;10.062;2022-09-06T01:23:15;4.13;;;2.20;;
17784;SDS011;9016;53.582;10.062;2022-09-06T01:26:15;3.03;;;2.30;;
17784;SDS011;9016;53.582;10.062;2022-09-06T01:28:58;5.07;;;3.27;;
17784;SDS011;9016;53.582;10.062;2022-09-06T01:31:29;4.03;;;2.40;;
17784;SDS011;9016;53.582;10.062;2022-09-06T01:34:10;4.40;;;2.33;;
17784;SDS011;9016;53.582;10.062;2022-09-06T01:36:47;3.53;;;2.00;;
17784;SDS011;9016;53.582;10.062;2022-09-06T01:39:36;3.20;;;2.10;;
17784;SDS011;9016;53.582;10.062;2022-09-06T01:42:07;2.70;;;2.00;;
17784;SDS011;9016;53.582;10.062;2022-09-06T01:44:40;3.87;;;2.90;;
17784;SDS011;9016;53.582;10.062;2022-09-06T01:47:15;2.73;;;2.10;;
17784;SDS011;9016;53.582;10.062;2022-09-06T01:49:54;2.30;;;2.10;;
17784;SDS011;9016;53.582;10.062;2022-09-06T01:52:38;2.63;;;2.00;;
17784;SDS011;9016;53.582;10.062;2022-09-06T01:55:20;4.27;;;2.37;;
17784;SDS011;9016;53.582;10.062;2022-09-06T01:58:01;3.20;;;2.37;;
17784;SDS011;9016;53.582;10.062;2022-09-06T02:00:45;2.10;;;1.90;;
17784;SDS011;9016;53.582;10.062;2022-09-06T02:03:23;6.00;;;2.37;;
17784;SDS011;9016;53.582;10.062;2022-09-06T02:05:56;4.13;;;2.00;;
17784;SDS011;9016;53.582;10.062;2022-09-06T02:08:31;3.90;;;2.20;;
17784;SDS011;9016;53.582;10.062;2022-09-06T02:11:03;2.60;;;2.07;;
17784;SDS011;9016;53.582;10.062;2022-09-06T02:13:34;3.20;;;2.00;;
17784;SDS011;9016;53.582;10.062;2022-09-06T02:16:07;2.60;;;1.80;;
17784;SDS011;9016;53.582;10.062;2022-09-06T02:18:41;4.57;;;2.10;;
17784;SDS011;9016;53.582;10.062;2022-09-06T02:21:13;4.50;;;1.90;;
17784;SDS011;9016;53.582;10.062;2022-09-06T02:23:44;6.03;;;1.93;;
17784;SDS011;9016;53.582;10.062;2022-09-06T02:26:16;2.40;;;2.20;;
17784;SDS011;9016;53.582;10.062;2022-09-06T02:28:48;2.33;;;2.10;;
17784;SDS011;9016;53.582;10.062;2022-09-06T02:31:18;3.47;;;2.07;;
17784;SDS011;9016;53.582;10.062;2022-09-06T02:33:50;3.37;;;2.37;;
17784;SDS011;9016;53.582;10.062;2022-09-06T02:36:19;3.93;;;2.30;;
17784;SDS011;9016;53.582;10.062;2022-09-06T02:38:47;3.93;;;2.13;;
17784;SDS011;9016;53.582;10.062;2022-09-06T02:41:16;3.90;;;2.10;;
17784;SDS011;9016;53.582;10.062;2022-09-06T02:43:47;4.93;;;2.10;;
17784;SDS011;9016;53.582;10.062;2022-09-06T02:46:17;3.43;;;2.00;;
17784;SDS011;9016;53.582;10.062;2022-09-06T02:48:46;3.07;;;2.00;;
17784;SDS011;9016;53.582;10.062;2022-09-06T02:51:14;5.37;;;1.97;;
17784;SDS011;9016;53.582;10.062;2022-09-06T02:53:42;6.23;;;1.90;;
17784;SDS011;9016;53.582;10.062;2022-09-06T02:56:10;2.43;;;1.87;;
17784;SDS011;9016;53.582;10.062;2022-09-06T02:58:38;2.43;;;1.83;;
17784;SDS011;9016;53.582;10.062;2022-09-06T03:01:06;3.03;;;1.80;;
17784;SDS011;9016;53.582;10.062;2022-09-06T03:03:36;3.70;;;1.90;;
17784;SDS011;9016;53.582;10.062;2022-09-06T03:06:04;3.33;;;2.13;;
17784;SDS011;9016;53.582;10.062;2022-09-06T03:08:32;3.47;;;1.80;;
17784;SDS011;9016;53.582;10.062;2022-09-06T03:11:01;4.10;;;2.10;;
17784;SDS011;9016;53.582;10.062;2022-09-06T03:13:29;2.73;;;2.13;;
17784;SDS011;9016;53.582;10.062;2022-09-06T03:15:58;2.03;;;1.80;;
17784;SDS011;9016;53.582;10.062;2022-09-06T03:18:27;3.23;;;1.93;;
17784;SDS011;9016;53.582;10.062;2022-09-06T03:20:58;3.80;;;2.00;;
17784;SDS011;9016;53.582;10.062;2022-09-06T03:23:26;2.27;;;2.07;;
17784;SDS011;9016;53.582;10.062;2022-09-06T03:25:55;3.17;;;1.97;;
17784;SDS011;9016;53.582;10.062;2022-09-06T03:28:23;2.47;;;2.23;;
17784;SDS011;9016;53.582;10.062;2022-09-06T03:30:52;2.40;;;2.20;;
17784;SDS011;9016;53.582;10.062;2022-09-06T03:33:20;4.03;;;1.87;;
17784;SDS011;9016;53.582;10.062;2022-09-06T03:35:49;2.63;;;2.10;;
17784;SDS011;9016;53.582;10.062;2022-09-06T03:38:20;2.03;;;1.83;;
17784;SDS011;9016;53.582;10.062;2022-09-06T03:40:49;2.80;;;1.90;;
17784;SDS011;9016;53.582;10.062;2022-09-06T03:43:19;3.67;;;2.00;;
17784;SDS011;9016;53.582;10.062;2022-09-06T03:45:49;4.47;;;1.90;;
17784;SDS011;9016;53.582;10.062;2022-09-06T03:48:19;4.23;;;2.43;;
17784;SDS011;9016;53.582;10.062;2022-09-06T03:50:49;5.23;;;4.10;;
17784;SDS011;9016;53.582;10.062;2022-09-06T03:53:18;5.13;;;2.03;;
17784;SDS011;9016;53.582;10.062;2022-09-06T03:55:49;4.37;;;2.33;;
17784;SDS011;9016;53.582;10.062;2022-09-06T03:58:19;4.90;;;2.70;;
17784;SDS011;9016;53.582;10.062;2022-09-06T04:00:48;3.53;;;2.43;;
17784;SDS011;9016;53.582;10.062;2022-09-06T04:03:16;2.83;;;2.10;;
17784;SDS011;9016;53.582;10.062;2022-09-06T04:05:45;3.03;;;2.10;;
17784;SDS011;9016;53.582;10.062;2022-09-06T04:08:14;4.43;;;2.27;;
17784;SDS011;9016;53.582;10.062;2022-09-06T04:10:44;4.87;;;2.10;;
17784;SDS011;9016;53.582;10.062;2022-09-06T04:13:11;2.43;;;2.13;;
17784;SDS011;9016;53.582;10.062;2022-09-06T04:15:39;4.83;;;2.40;;
17784;SDS011;9016;53.582;10.062;2022-09-06T04:18:12;3.33;;;1.90;;
17784;SDS011;9016;53.582;10.062;2022-09-06T04:20:40;3.53;;;1.93;;
17784;SDS011;9016;53.582;10.062;2022-09-06T04:23:08;2.63;;;1.80;;
17784;SDS011;9016;53.582;10.062;2022-09-06T04:25:37;3.67;;;2.10;;
17784;SDS011;9016;53.582;10.062;2022-09-06T04:28:06;3.40;;;2.00;;
17784;SDS011;9016;53.582;10.062;2022-09-06T04:30:34;2.47;;;2.20;;
17784;SDS011;9016;53.582;10.062;2022-09-06T04:33:02;3.70;;;2.50;;
17784;SDS011;9016;53.582;10.062;2022-09-06T04:35:30;5.27;;;2.40;;
17784;SDS011;9016;53.582;10.062;2022-09-06T04:37:59;5.23;;;2.40;;
17784;SDS011;9016;53.582;10.062;2022-09-06T04:40:27;5.93;;;2.70;;
17784;SDS011;9016;53.582;10.062;2022-09-06T04:42:55;2.47;;;2.20;;
17784;SDS011;9016;53.582;10.062;2022-09-06T04:45:25;4.73;;;2.00;;
17784;SDS011;9016;53.582;10.062;2022-09-06T04:47:53;2.73;;;1.90;;
17784;SDS011;9016;53.582;10.062;2022-09-06T04:50:22;6.30;;;1.80;;
17784;SDS011;9016;53.582;10.062;2022-09-06T04:52:50;2.40;;;1.93;;
17784;SDS011;9016;53.582;10.062;2022-09-06T04:55:20;2.57;;;2.13;;
17784;SDS011;9016;53.582;10.062;2022-09-06T04:57:48;2.23;;;1.90;;
17784;SDS011;9016;53.582;10.062;2022-09-06T05:00:16;4.50;;;2.00;;
17784;SDS011;9016;53.582;10.062;2022-09-06T05:02:46;3.30;;;1.77;;
17784;SDS011;9016;53.582;10.062;2022-09-06T05:05:14;4.40;;;1.80;;
17784;SDS011;9016;53.582;10.062;2022-09-06T05:07:43;4.63;;;2.30;;
17784;SDS011;9016;53.582;10.062;2022-09-06T05:10:11;4.20;;;2.10;;
17784;SDS011;9016;53.582;10.062;2022-09-06T05:12:39;4.00;;;2.23;;
17784;SDS011;9016;53.582;10.062;2022-09-06T05:15:09;2.20;;;1.97;;
17784;SDS011;9016;53.582;10.062;2022-09-06T05:17:38;2.50;;;1.97;;
17784;SDS011;9016;53.582;10.062;2022-09-06T05:20:08;3.20;;;1.67;;
17784;SDS011;9016;53.582;10.062;2022-09-06T05:22:38;2.13;;;1.87;;
17784;SDS011;9016;53.582;10.062;2022-09-06T05:25:07;2.70;;;1.93;;
17784;SDS011;9016;53.582;10.062;2022-09-06T05:27:36;5.03;;;1.97;;
17784;SDS011;9016;53.582;10.062;2022-09-06T05:30:05;2.47;;;1.80;;
17784;SDS011;9016;53.582;10.062;2022-09-06T05:32:33;3.70;;;1.97;;
17784;SDS011;9016;53.582;10.062;2022-09-06T05:35:01;5.20;;;1.87;;
17784;SDS011;9016;53.582;10.062;2022-09-06T05:37:31;5.67;;;2.00;;
17784;SDS011;9016;53.582;10.062;2022-09-06T05:39:59;3.57;;;1.93;;
17784;SDS011;9016;53.582;10.062;2022-09-06T05:42:27;2.63;;;2.20;;
17784;SDS011;9016;53.582;10.062;2022-09-06T05:44:55;3.23;;;1.97;;
17784;SDS011;9016;53.582;10.062;2022-09-06T05:47:23;2.87;;;2.00;;
17784;SDS011;9016;53.582;10.062;2022-09-06T05:49:52;3.33;;;1.87;;
17784;SDS011;9016;53.582;10.062;2022-09-06T05:52:20;3.03;;;1.80;;
17784;SDS011;9016;53.582;10.062;2022-09-06T05:54:50;2.07;;;1.87;;
17784;SDS011;9016;53.582;10.062;2022-09-06T05:57:17;1.77;;;1.67;;
17784;SDS011;9016;53.582;10.062;2022-09-06T05:59:46;1.70;;;1.60;;
17784;SDS011;9016;53.582;10.062;2022-09-06T06:02:14;7.07;;;2.00;;
17784;SDS011;9016;53.582;10.062;2022-09-06T06:04:42;5.30;;;1.90;;
17784;SDS011;9016;53.582;10.062;2022-09-06T06:07:10;2.97;;;1.70;;
17784;SDS011;9016;53.582;10.062;2022-09-06T06:09:38;3.57;;;1.87;;
17784;SDS011;9016;53.582;10.062;2022-09-06T06:12:08;2.83;;;1.60;;
17784;SDS011;9016;53.582;10.062;2022-09-06T06:14:36;3.57;;;1.50;;
17784;SDS011;9016;53.582;10.062;2022-09-06T06:17:04;3.77;;;1.70;;
17784;SDS011;9016;53.582;10.062;2022-09-06T06:19:33;2.83;;;1.57;;
17784;SDS011;9016;53.582;10.062;2022-09-06T06:22:03;2.30;;;1.63;;
17784;SDS011;9016;53.582;10.062;2022-09-06T06:24:31;2.47;;;1.70;;
17784;SDS011;9016;53.582;10.062;2022-09-06T06:26:59;5.13;;;2.83;;
17784;SDS011;9016;53.582;10.062;2022-09-06T06:29:29;3.50;;;1.80;;
17784;SDS011;9016;53.582;10.062;2022-09-06T06:31:57;3.80;;;2.13;;
17784;SDS011;9016;53.582;10.062;2022-09-06T06:34:25;3.40;;;1.90;;
17784;SDS011;9016;53.582;10.062;2022-09-06T06:36:53;4.13;;;2.03;;
17784;SDS011;9016;53.582;10.062;2022-09-06T06:39:21;3.37;;;2.87;;
17784;SDS011;9016;53.582;10.062;2022-09-06T06:41:49;3.77;;;1.93;;
17784;SDS011;9016;53.582;10.062;2022-09-06T06:44:17;2.93;;;1.50;;
17784;SDS011;9016;53.582;10.062;2022-09-06T06:46:46;5.27;;;2.10;;
17784;SDS011;9016;53.582;10.062;2022-09-06T06:49:14;4.50;;;2.70;;
17784;SDS011;9016;53.582;10.062;2022-09-06T06:51:43;5.20;;;2.00;;
17784;SDS011;9016;53.582;10.062;2022-09-06T06:54:10;3.53;;;2.20;;
17784;SDS011;9016;53.582;10.062;2022-09-06T06:56:38;5.37;;;2.93;;
17784;SDS011;9016;53.582;10.062;2022-09-06T06:59:07;3.13;;;1.90;;
17784;SDS011;9016;53.582;10.062;2022-09-06T07:01:36;4.40;;;2.60;;
17784;SDS011;9016;53.582;10.062;2022-09-06T07:04:05;5.63;;;2.30;;
17784;SDS011;9016;53.582;10.062;2022-09-06T07:06:46;4.27;;;2.60;;
17784;SDS011;9016;53.582;10.062;2022-09-06T07:09:35;4.70;;;1.77;;
17784;SDS011;9016;53.582;10.062;2022-09-06T07:12:23;2.70;;;1.93;;
17784;SDS011;9016;53.582;10.062;2022-09-06T07:14:51;5.90;;;2.20;;
17784;SDS011;9016;53.582;10.062;2022-09-06T07:17:19;6.60;;;2.50;;
17784;SDS011;9016;53.582;10.062;2022-09-06T07:19:48;5.23;;;2.60;;
17784;SDS011;9016;53.582;10.062;2022-09-06T07:22:36;7.03;;;2.30;;
17784;SDS011;9016;53.582;10.062;2022-09-06T07:25:06;4.17;;;2.17;;
17784;SDS011;9016;53.582;10.062;2022-09-06T07:27:35;5.17;;;2.30;;
17784;SDS011;9016;53.582;10.062;2022-09-06T07:30:18;5.40;;;2.70;;
17784;SDS011;9016;53.582;10.062;2022-09-06T07:32:46;4.30;;;1.80;;
17784;SDS011;9016;53.582;10.062;2022-09-06T07:35:15;4.20;;;2.07;;
17784;SDS011;9016;53.582;10.062;2022-09-06T07:37:52;2.90;;;2.03;;
17784;SDS011;9016;53.582;10.062;2022-09-06T07:40:21;4.80;;;2.00;;
17784;SDS011;9016;53.582;10.062;2022-09-06T07:42:49;4.57;;;1.83;;
17784;SDS011;9016;53.582;10.062;2022-09-06T07:45:17;2.47;;;2.00;;
17784;SDS011;9016;53.582;10.062;2022-09-06T07:47:51;2.50;;;1.90;;
17784;SDS011;9016;53.582;10.062;2022-09-06T07:50:22;3.60;;;1.80;;
17784;SDS011;9016;53.582;10.062;2022-09-06T07:53:10;4.33;;;2.00;;
17784;SDS011;9016;53.582;10.062;2022-09-06T07:55:47;3.83;;;2.00;;
17784;SDS011;9016;53.582;10.062;2022-09-06T07:58:14;4.17;;;1.90;;
17784;SDS011;9016;53.582;10.062;2022-09-06T08:00:43;5.23;;;3.87;;
17784;SDS011;9016;53.582;10.062;2022-09-06T08:03:11;7.50;;;2.87;;
17784;SDS011;9016;53.582;10.062;2022-09-06T08:05:40;4.70;;;2.90;;
17784;SDS011;9016;53.582;10.062;2022-09-06T08:08:28;5.23;;;2.53;;
17784;SDS011;9016;53.582;10.062;2022-09-06T08:11:17;4.17;;;2.70;;
17784;SDS011;9016;53.582;10.062;2022-09-06T08:13:47;5.07;;;4.03;;
17784;SDS011;9016;53.582;10.062;2022-09-06T08:16:16;5.13;;;2.30;;
17784;SDS011;9016;53.582;10.062;2022-09-06T08:18:48;4.40;;;2.67;;
17784;SDS011;9016;53.582;10.062;2022-09-06T08:21:19;3.07;;;2.20;;
17784;SDS011;9016;53.582;10.062;2022-09-06T08:23:49;5.37;;;2.70;;
17784;SDS011;9016;53.582;10.062;2022-09-06T08:26:19;5.63;;;2.30;;
17784;SDS011;9016;53.582;10.062;2022-09-06T08:28:51;4.13;;;2.40;;
17784;SDS011;9016;53.582;10.062;2022-09-06T08:31:21;3.87;;;2.20;;
17784;SDS011;9016;53.582;10.062;2022-09-06T08:33:49;4.78;;;2.45;;
17784;SDS011;9016;53.582;10.062;2022-09-06T08:36:19;5.75;;;2.30;;
17784;SDS011;9016;53.582;10.062;2022-09-06T08:38:47;7.13;;;2.40;;
17784;SDS011;9016;53.582;10.062;2022-09-06T08:41:18;4.28;;;2.35;;
17784;SDS011;9016;53.582;10.062;2022-09-06T08:43:51;3.05;;;2.25;;
17784;SDS011;9016;53.582;10.062;2022-09-06T08:46:45;4.50;;;2.35;;
17784;SDS011;9016;53.582;10.062;2022-09-06T08:49:20;10.35;;;2.72;;
17784;SDS011;9016;53.582;10.062;2022-09-06T08:51:53;5.53;;;2.47;;
17784;SDS011;9016;53.582;10.062;2022-09-06T08:54:44;4.28;;;2.60;;
17784;SDS011;9016;53.582;10.062;2022-09-06T08:57:24;7.32;;;2.30;;
17784;SDS011;9016;53.582;10.062;2022-09-06T09:00:06;5.47;;;2.38;;
17784;SDS011;9016;53.582;10.062;2022-09-06T09:02:42;6.00;;;2.45;;
17784;SDS011;9016;53.582;10.062;2022-09-06T09:05:19;4.30;;;2.40;;
17784;SDS011;9016;53.582;10.062;2022-09-06T09:07:54;7.30;;;2.50;;
17784;SDS011;9016;53.582;10.062;2022-09-06T09:10:29;5.55;;;4.15;;
17784;SDS011;9016;53.582;10.062;2022-09-06T09:13:01;13.55;;;5.25;;
17784;SDS011;9016;53.582;10.062;2022-09-06T09:15:31;6.78;;;3.05;;
17784;SDS011;9016;53.582;10.062;2022-09-06T09:18:05;6.82;;;3.70;;
17784;SDS011;9016;53.582;10.062;2022-09-06T09:20:35;5.85;;;2.90;;
17784;SDS011;9016;53.582;10.062;2022-09-06T09:23:05;5.03;;;3.53;;
17784;SDS011;9016;53.582;10.062;2022-09-06T09:25:33;6.38;;;3.17;;
17784;SDS011;9016;53.582;10.062;2022-09-06T09:28:04;9.25;;;2.95;;
17784;SDS011;9016;53.582;10.062;2022-09-06T09:30:43;4.15;;;2.50;;
17784;SDS011;9016;53.582;10.062;2022-09-06T09:33:22;4.00;;;2.70;;
17784;SDS011;9016;53.582;10.062;2022-09-06T09:35:52;6.82;;;3.47;;
17784;SDS011;9016;53.582;10.062;2022-09-06T09:38:23;6.90;;;2.38;;
17784;SDS011;9016;53.582;10.062;2022-09-06T09:40:54;5.82;;;2.42;;
17784;SDS011;9016;53.582;10.062;2022-09-06T09:43:24;6.18;;;2.70;;
17784;SDS011;9016;53.582;10.062;2022-09-06T09:46:11;5.75;;;3.00;;
17784;SDS011;9016;53.582;10.062;2022-09-06T09:48:42;7.50;;;2.77;;
17784;SDS011;9016;53.582;10.062;2022-09-06T09:51:19;6.68;;;2.40;;
17784;SDS011;9016;53.582;10.062;2022-09-06T09:53:54;5.05;;;2.45;;
17784;SDS011;9016;53.582;10.062;2022-09-06T09:56:28;3.45;;;2.65;;
17784;SDS011;9016;53.582;10.062;2022-09-06T09:59:00;4.60;;;2.50;;
17784;SDS011;9016;53.582;10.062;2022-09-06T10:01:30;7.00;;;2.70;;
17784;SDS011;9016;53.582;10.062;2022-09-06T10:04:00;6.57;;;2.67;;
17784;SDS011;9016;53.582;10.062;2022-09-06T10:06:50;6.20;;;2.70;;
17784;SDS011;9016;53.582;10.062;2022-09-06T10:09:36;3.03;;;2.30;;
17784;SDS011;9016;53.582;10.062;2022-09-06T10:12:06;5.00;;;2.42;;
17784;SDS011;9016;53.582;10.062;2022-09-06T10:14:39;4.72;;;2.38;;
17784;SDS011;9016;53.582;10.062;2022-09-06T10:17:08;3.95;;;2.63;;
17784;SDS011;9016;53.582;10.062;2022-09-06T10:19:45;7.95;;;2.97;;
17784;SDS011;9016;53.582;10.062;2022-09-06T10:22:22;5.22;;;2.70;;
17784;SDS011;9016;53.582;10.062;2022-09-06T10:25:02;4.55;;;3.05;;
17784;SDS011;9016;53.582;10.062;2022-09-06T10:27:58;6.45;;;2.80;;
17784;SDS011;9016;53.582;10.062;2022-09-06T10:34:43;7.50;;;3.78;;
17784;SDS011;9016;53.582;10.062;2022-09-06T10:37:35;7.35;;;5.40;;
17784;SDS011;9016;53.582;10.062;2022-09-06T10:40:14;7.70;;;2.83;;
17784;SDS011;9016;53.582;10.062;2022-09-06T10:42:53;4.43;;;3.80;;
17784;SDS011;9016;53.582;10.062;2022-09-06T10:45:28;6.55;;;2.92;;
17784;SDS011;9016;53.582;10.062;2022-09-06T10:48:08;7.65;;;3.92;;
17784;SDS011;9016;53.582;10.062;2022-09-06T10:50:41;6.20;;;3.20;;
17784;SDS011;9016;53.582;10.062;2022-09-06T10:53:16;11.55;;;7.28;;
17784;SDS011;9016;53.582;10.062;2022-09-06T10:56:00;9.55;;;4.38;;
17784;SDS011;9016;53.582;10.062;2022-09-06T10:58:32;3.05;;;2.60;;
17784;SDS011;9016;53.582;10.062;2022-09-06T11:01:29;9.68;;;2.83;;
17784;SDS011;9016;53.582;10.062;2022-09-06T11:04:01;5.13;;;2.80;;
17784;SDS011;9016;53.582;10.062;2022-09-06T11:06:41;7.85;;;2.80;;
17784;SDS011;9016;53.582;10.062;2022-09-06T11:09:13;5.97;;;3.20;;
17784;SDS011;9016;53.582;10.062;2022-09-06T11:11:49;5.68;;;3.10;;
17784;SDS011;9016;53.582;10.062;2022-09-06T11:14:21;7.45;;;3.40;;
17784;SDS011;9016;53.582;10.062;2022-09-06T11:16:55;4.18;;;2.60;;
17784;SDS011;9016;53.582;10.062;2022-09-06T11:19:30;5.63;;;2.80;;
17784;SDS011;9016;53.582;10.062;2022-09-06T11:28:09;4.38;;;2.42;;
17784;SDS011;9016;53.582;10.062;2022-09-06T11:30:42;5.10;;;2.95;;
17784;SDS011;9016;53.582;10.062;2022-09-06T11:33:17;5.63;;;2.20;;
17784;SDS011;9016;53.582;10.062;2022-09-06T11:35:51;5.40;;;2.80;;
17784;SDS011;9016;53.582;10.062;2022-09-06T11:38:22;5.03;;;2.22;;
17784;SDS011;9016;53.582;10.062;2022-09-06T11:40:55;8.43;;;2.58;;
17784;SDS011;9016;53.582;10.062;2022-09-06T11:43:45;5.88;;;2.97;;
17784;SDS011;9016;53.582;10.062;2022-09-06T11:49:32;9.32;;;3.13;;
17784;SDS011;9016;53.582;10.062;2022-09-06T11:55:09;4.57;;;2.50;;
17784;SDS011;9016;53.582;10.062;2022-09-06T11:57:39;7.82;;;2.20;;
17784;SDS011;9016;53.582;10.062;2022-09-06T12:00:16;2.97;;;2.67;;
17784;SDS011;9016;53.582;10.062;2022-09-06T12:02:46;4.03;;;2.70;;
17784;SDS011;9016;53.582;10.062;2022-09-06T12:05:18;7.15;;;3.92;;
17784;SDS011;9016;53.582;10.062;2022-09-06T12:11:05;5.90;;;3.38;;
17784;SDS011;9016;53.582;10.062;2022-09-06T12:13:57;4.25;;;2.60;;
17784;SDS011;9016;53.582;10.062;2022-09-06T12:19:38;3.83;;;2.40;;
17784;SDS011;9016;53.582;10.062;2022-09-06T12:28:33;6.15;;;3.42;;
17784;SDS011;9016;53.582;10.062;2022-09-06T12:31:30;5.50;;;2.58;;
17784;SDS011;9016;53.582;10.062;2022-09-06T12:34:07;7.90;;;2.75;;
17784;SDS011;9016;53.582;10.062;2022-09-06T12:36:56;5.32;;;3.13;;
17784;SDS011;9016;53.582;10.062;2022-09-06T12:39:26;11.13;;;9.05;;
17784;SDS011;9016;53.582;10.062;2022-09-06T12:41:55;6.55;;;3.40;;
17784;SDS011;9016;53.582;10.062;2022-09-06T12:44:27;5.47;;;2.80;;
17784;SDS011;9016;53.582;10.062;2022-09-06T12:47:01;5.40;;;3.00;;
17784;SDS011;9016;53.582;10.062;2022-09-06T12:49:32;10.07;;;5.53;;
17784;SDS011;9016;53.582;10.062;2022-09-06T12:52:06;7.95;;;6.07;;
17784;SDS011;9016;53.582;10.062;2022-09-06T12:54:42;5.55;;;4.88;;
17784;SDS011;9016;53.582;10.062;2022-09-06T12:57:13;7.85;;;7.05;;
17784;SDS011;9016;53.582;10.062;2022-09-06T12:59:48;5.18;;;3.15;;
17784;SDS011;9016;53.582;10.062;2022-09-06T13:02:20;5.38;;;4.20;;
17784;SDS011;9016;53.582;10.062;2022-09-06T13:04:54;10.52;;;3.53;;
17784;SDS011;9016;53.582;10.062;2022-09-06T13:07:29;7.25;;;3.17;;
17784;SDS011;9016;53.582;10.062;2022-09-06T13:10:00;6.72;;;3.70;;
17784;SDS011;9016;53.582;10.062;2022-09-06T13:12:30;9.23;;;4.95;;
17784;SDS011;9016;53.582;10.062;2022-09-06T13:15:02;6.88;;;3.58;;
17784;SDS011;9016;53.582;10.062;2022-09-06T13:17:34;6.78;;;3.13;;
17784;SDS011;9016;53.582;10.062;2022-09-06T13:20:10;3.53;;;2.88;;
17784;SDS011;9016;53.582;10.062;2022-09-06T13:22:42;5.10;;;2.85;;
17784;SDS011;9016;53.582;10.062;2022-09-06T13:25:16;6.63;;;2.80;;
17784;SDS011;9016;53.582;10.062;2022-09-06T13:27:51;6.63;;;2.70;;
17784;SDS011;9016;53.582;10.062;2022-09-06T13:30:33;6.65;;;3.70;;
17784;SDS011;9016;53.582;10.062;2022-09-06T13:33:04;9.38;;;3.60;;
17784;SDS011;9016;53.582;10.062;2022-09-06T13:35:35;5.28;;;3.75;;
17784;SDS011;9016;53.582;10.062;2022-09-06T13:38:21;5.93;;;3.00;;
17784;SDS011;9016;53.582;10.062;2022-09-06T13:40:59;12.93;;;8.48;;
17784;SDS011;9016;53.582;10.062;2022-09-06T13:43:40;7.05;;;3.33;;
17784;SDS011;9016;53.582;10.062;2022-09-06T13:46:10;4.43;;;2.58;;
17784;SDS011;9016;53.582;10.062;2022-09-06T13:48:38;3.85;;;3.00;;
17784;SDS011;9016;53.582;10.062;2022-09-06T13:51:08;8.10;;;4.00;;
17784;SDS011;9016;53.582;10.062;2022-09-06T13:53:37;5.63;;;3.20;;
17784;SDS011;9016;53.582;10.062;2022-09-06T13:56:05;4.57;;;3.10;;
17784;SDS011;9016;53.582;10.062;2022-09-06T13:58:34;4.18;;;3.40;;
17784;SDS011;9016;53.582;10.062;2022-09-06T14:01:02;5.38;;;3.38;;
17784;SDS011;9016;53.582;10.062;2022-09-06T14:03:34;6.22;;;3.65;;
17784;SDS011;9016;53.582;10.062;2022-09-06T14:06:04;6.28;;;3.28;;
17784;SDS011;9016;53.582;10.062;2022-09-06T14:08:33;6.25;;;3.65;;
17784;SDS011;9016;53.582;10.062;2022-09-06T14:11:23;10.93;;;3.78;;
17784;SDS011;9016;53.582;10.062;2022-09-06T14:13:51;4.95;;;3.20;;
17784;SDS011;9016;53.582;10.062;2022-09-06T14:16:20;5.45;;;3.90;;
17784;SDS011;9016;53.582;10.062;2022-09-06T14:18:48;8.00;;;3.33;;
17784;SDS011;9016;53.582;10.062;2022-09-06T14:21:17;7.15;;;5.07;;
17784;SDS011;9016;53.582;10.062;2022-09-06T14:23:47;10.70;;;3.30;;
17784;SDS011;9016;53.582;10.062;2022-09-06T14:26:17;6.32;;;2.88;;
17784;SDS011;9016;53.582;10.062;2022-09-06T14:28:47;7.82;;;3.30;;
17784;SDS011;9016;53.582;10.062;2022-09-06T14:31:17;8.82;;;5.30;;
17784;SDS011;9016;53.582;10.062;2022-09-06T14:33:46;5.07;;;4.35;;
17784;SDS011;9016;53.582;10.062;2022-09-06T14:36:15;8.07;;;3.30;;
17784;SDS011;9016;53.582;10.062;2022-09-06T14:38:45;6.00;;;3.53;;
17784;SDS011;9016;53.582;10.062;2022-09-06T14:41:14;4.35;;;3.20;;
17784;SDS011;9016;53.582;10.062;2022-09-06T14:43:46;4.32;;;3.92;;
17784;SDS011;9016;53.582;10.062;2022-09-06T14:46:19;4.93;;;3.10;;
17784;SDS011;9016;53.582;10.062;2022-09-06T14:48:48;5.53;;;3.40;;
17784;SDS011;9016;53.582;10.062;2022-09-06T14:51:23;6.05;;;2.85;;
17784;SDS011;9016;53.582;10.062;2022-09-06T14:53:52;3.40;;;3.10;;
17784;SDS011;9016;53.582;10.062;2022-09-06T14:56:22;4.32;;;3.78;;
17784;SDS011;9016;53.582;10.062;2022-09-06T14:58:53;10.43;;;4.32;;
17784;SDS011;9016;53.582;10.062;2022-09-06T15:01:23;5.68;;;3.40;;
17784;SDS011;9016;53.582;10.062;2022-09-06T15:03:54;7.78;;;3.65;;
17784;SDS011;9016;53.582;10.062;2022-09-06T15:06:24;9.02;;;3.70;;
17784;SDS011;9016;53.582;10.062;2022-09-06T15:08:53;8.98;;;6.40;;
17784;SDS011;9016;53.582;10.062;2022-09-06T15:11:28;7.60;;;3.63;;
17784;SDS011;9016;53.582;10.062;2022-09-06T15:14:01;5.75;;;3.33;;
17784;SDS011;9016;53.582;10.062;2022-09-06T15:16:31;10.20;;;4.93;;
17784;SDS011;9016;53.582;10.062;2022-09-06T15:18:59;6.63;;;4.15;;
17784;SDS011;9016;53.582;10.062;2022-09-06T15:21:28;6.07;;;4.45;;
17784;SDS011;9016;53.582;10.062;2022-09-06T15:23:57;12.25;;;4.10;;
17784;SDS011;9016;53.582;10.062;2022-09-06T15:26:27;7.13;;;4.72;;
17784;SDS011;9016;53.582;10.062;2022-09-06T15:28:55;6.05;;;3.78;;
17784;SDS011;9016;53.582;10.062;2022-09-06T15:31:25;8.68;;;5.07;;
17784;SDS011;9016;53.582;10.062;2022-09-06T15:33:53;8.23;;;5.13;;
17784;SDS011;9016;53.582;10.062;2022-09-06T15:36:23;5.00;;;3.72;;
17784;SDS011;9016;53.582;10.062;2022-09-06T15:38:52;6.97;;;5.47;;
17784;SDS011;9016;53.582;10.062;2022-09-06T15:41:25;9.02;;;5.90;;
17784;SDS011;9016;53.582;10.062;2022-09-06T15:43:55;6.00;;;4.20;;
17784;SDS011;9016;53.582;10.062;2022-09-06T15:46:40;6.20;;;4.05;;
17784;SDS011;9016;53.582;10.062;2022-09-06T15:49:19;11.25;;;6.57;;